Time;durP1;ratioP1;P1;durP2;ratioP2;P2;SDS_P1;SDS_P2;PMS_P1;PMS_P2;Temp;Humidity;BMP_temperature;BMP_pressure;BME280_temperature;BME280_humidity;BME280_pressure;Samples;Min_cycle;Max_cycle;Signal;HPM_P1;HPM_P2
2021/07/06 00:01:25;;;;;;;1.63;1.53;;;;;;;;;;491910;241;27388;-70
2021/07/06 00:03:27;;;;;;;1.93;1.83;;;;;;;;;;491907;241;27439;-70
2021/07/06 00:05:30;;;;;;;1.70;1.60;;;;;;;;;;491914;241;27508;-71
2021/07/06 00:07:32;;;;;;;1.80;1.70;;;;;;;;;;491912;241;27540;-70
2021/07/06 00:09:34;;;;;;;1.70;1.60;;;;;;;;;;491908;241;27378;-69
2021/07/06 00:11:36;;;;;;;1.60;1.60;;;;;;;;;;491898;241;27370;-70
2021/07/06 00:13:38;;;;;;;1.80;1.70;;;;;;;;;;491901;241;27394;-70
2021/07/06 00:15:40;;;;;;;1.90;1.80;;;;;;;;;;491913;241;27359;-71
2021/07/06 00:17:42;;;;;;;1.80;1.70;;;;;;;;;;491913;241;27386;-69
2021/07/06 00:19:44;;;;;;;1.50;1.40;;;;;;;;;;491921;241;27359;-70
2021/07/06 00:21:47;;;;;;;1.80;1.70;;;;;;;;;;491883;241;27489;-69
2021/07/06 00:23:49;;;;;;;4.37;1.50;;;;;;;;;;491895;241;27358;-69
2021/07/06 00:25:51;;;;;;;2.10;2.00;;;;;;;;;;491883;241;27378;-70
2021/07/06 00:30:14;;;;;;;1.93;1.83;;;;;;;;;;467888;254;27436;-70
2021/07/06 00:32:17;;;;;;;1.80;1.70;;;;;;;;;;467885;254;27529;-70
2021/07/06 00:34:19;;;;;;;1.93;1.83;;;;;;;;;;467853;254;27444;-69
2021/07/06 00:36:21;;;;;;;3.20;1.90;;;;;;;;;;467847;254;27414;-69
2021/07/06 00:38:23;;;;;;;1.90;1.80;;;;;;;;;;467850;254;27544;-71
2021/07/06 00:40:25;;;;;;;2.77;1.90;;;;;;;;;;467881;254;27476;-69
2021/07/06 00:42:27;;;;;;;2.13;1.90;;;;;;;;;;467853;254;27440;-69
2021/07/06 00:44:29;;;;;;;1.73;1.63;;;;;;;;;;467845;254;27420;-70
2021/07/06 00:46:31;;;;;;;1.90;1.80;;;;;;;;;;467857;254;27535;-71
2021/07/06 00:48:33;;;;;;;2.13;2.03;;;;;;;;;;467867;254;27564;-69
2021/07/06 00:50:36;;;;;;;1.90;1.80;;;;;;;;;;467840;254;27525;-69
2021/07/06 00:52:38;;;;;;;1.83;1.73;;;;;;;;;;467858;254;27445;-70
2021/07/06 00:54:40;;;;;;;1.70;1.60;;;;;;;;;;467890;254;28378;-70
2021/07/06 00:56:44;;;;;;;1.83;1.73;;;;;;;;;;467882;250;27480;-71
2021/07/06 00:58:44;;;;;;;1.70;1.60;;;;;;;;;;467754;254;28019;-70
2021/07/06 01:00:46;;;;;;;1.90;1.80;;;;;;;;;;467876;254;27456;-69
2021/07/06 01:02:50;;;;;;;1.90;1.80;;;;;;;;;;467884;254;27981;-69
2021/07/06 01:04:50;;;;;;;1.47;1.47;;;;;;;;;;467762;254;27536;-71
2021/07/06 01:06:52;;;;;;;2.00;1.90;;;;;;;;;;467869;254;27983;-71
2021/07/06 01:08:55;;;;;;;2.00;1.90;;;;;;;;;;467869;254;27532;-68
2021/07/06 01:10:57;;;;;;;1.90;1.80;;;;;;;;;;467858;254;27947;-69
2021/07/06 01:12:59;;;;;;;1.70;1.60;;;;;;;;;;467864;254;27469;-69
2021/07/06 01:15:01;;;;;;;1.60;1.60;;;;;;;;;;467875;254;28029;-70
2021/07/06 01:17:03;;;;;;;1.77;1.67;;;;;;;;;;467791;254;27519;-68
2021/07/06 01:19:05;;;;;;;1.67;1.60;;;;;;;;;;467850;254;27459;-69
2021/07/06 01:21:07;;;;;;;1.77;1.67;;;;;;;;;;467839;254;27472;-70
2021/07/06 01:23:09;;;;;;;1.60;1.50;;;;;;;;;;467852;254;27440;-71
2021/07/06 01:25:12;;;;;;;1.97;1.87;;;;;;;;;;467882;254;27440;-68
2021/07/06 01:27:15;;;;;;;1.60;1.50;;;;;;;;;;467859;254;27458;-71
2021/07/06 01:29:17;;;;;;;1.80;1.70;;;;;;;;;;477861;236;27994;-70
2021/07/06 01:31:19;;;;;;;1.80;1.70;;;;;;;;;;480647;247;27463;-71
2021/07/06 01:33:22;;;;;;;2.03;1.93;;;;;;;;;;480621;247;27964;-69
2021/07/06 01:35:23;;;;;;;1.70;1.60;;;;;;;;;;480572;247;27455;-69
2021/07/06 01:37:26;;;;;;;1.80;1.70;;;;;;;;;;480651;247;27919;-69
2021/07/06 01:39:29;;;;;;;3.30;1.70;;;;;;;;;;480642;247;27534;-69
2021/07/06 01:41:30;;;;;;;1.70;1.60;;;;;;;;;;480527;247;27938;-72
2021/07/06 01:43:32;;;;;;;1.97;1.87;;;;;;;;;;480630;247;27467;-70
2021/07/06 01:45:34;;;;;;;1.80;1.70;;;;;;;;;;480642;247;28006;-71
2021/07/06 01:47:36;;;;;;;1.80;1.70;;;;;;;;;;480641;247;27451;-69
2021/07/06 01:49:38;;;;;;;2.03;1.83;;;;;;;;;;492888;239;28113;-69
2021/07/06 01:51:40;;;;;;;1.73;1.63;;;;;;;;;;495802;239;27411;-71
2021/07/06 01:53:42;;;;;;;1.80;1.70;;;;;;;;;;495784;239;28110;-69
2021/07/06 01:55:45;;;;;;;1.90;1.80;;;;;;;;;;495811;239;27385;-71
2021/07/06 01:57:47;;;;;;;1.80;1.70;;;;;;;;;;495821;240;27934;-69
2021/07/06 01:59:49;;;;;;;2.03;1.90;;;;;;;;;;483428;234;27406;-71
2021/07/06 02:01:51;;;;;;;2.00;1.90;;;;;;;;;;481299;247;27887;-70
2021/07/06 02:03:53;;;;;;;1.90;1.80;;;;;;;;;;481291;247;27407;-72
2021/07/06 02:05:58;;;;;;;1.97;1.87;;;;;;;;;;481227;247;27835;-70
2021/07/06 02:10:06;;;;;;;2.10;1.90;;;;;;;;;;502314;235;27423;-69
2021/07/06 02:12:08;;;;;;;1.70;1.60;;;;;;;;;;502202;237;27829;-70
2021/07/06 02:14:10;;;;;;;2.00;1.90;;;;;;;;;;502218;237;27439;-71
2021/07/06 02:16:12;;;;;;;2.70;1.93;;;;;;;;;;502254;237;27814;-69
2021/07/06 02:18:21;;;;;;;1.93;1.80;;;;;;;;;;502237;237;27395;-71
2021/07/06 02:20:22;;;;;;;1.80;1.70;;;;;;;;;;502201;237;27643;-72
2021/07/06 02:22:24;;;;;;;1.80;1.70;;;;;;;;;;502195;237;27526;-71
2021/07/06 02:24:26;;;;;;;1.80;1.70;;;;;;;;;;502087;237;27459;-71
2021/07/06 02:26:28;;;;;;;1.80;1.67;;;;;;;;;;502203;237;27399;-70
2021/07/06 02:28:31;;;;;;;2.33;1.83;;;;;;;;;;498242;236;27384;-71
2021/07/06 02:30:33;;;;;;;1.80;1.70;;;;;;;;;;489353;243;27506;-71
2021/07/06 02:32:35;;;;;;;2.03;1.87;;;;;;;;;;489368;243;27502;-71
2021/07/06 02:34:37;;;;;;;2.10;1.90;;;;;;;;;;489306;243;27531;-69
2021/07/06 02:36:39;;;;;;;2.50;1.83;;;;;;;;;;489339;243;27508;-69
2021/07/06 02:38:41;;;;;;;2.00;1.90;;;;;;;;;;489333;243;27610;-71
2021/07/06 02:40:43;;;;;;;2.10;2.00;;;;;;;;;;489348;243;27519;-69
2021/07/06 02:42:45;;;;;;;2.20;1.87;;;;;;;;;;489349;243;27500;-71
2021/07/06 02:44:47;;;;;;;1.90;1.80;;;;;;;;;;489251;243;27504;-71
2021/07/06 02:46:50;;;;;;;1.70;1.70;;;;;;;;;;489342;243;27632;-71
2021/07/06 02:48:52;;;;;;;1.97;1.87;;;;;;;;;;489347;243;27506;-70
2021/07/06 02:50:54;;;;;;;2.33;2.20;;;;;;;;;;489324;243;27607;-71
2021/07/06 02:52:56;;;;;;;1.93;1.83;;;;;;;;;;489349;243;27534;-71
2021/07/06 02:54:58;;;;;;;1.50;1.50;;;;;;;;;;489336;243;27603;-70
2021/07/06 02:57:00;;;;;;;1.90;1.80;;;;;;;;;;489351;243;27573;-71
2021/07/06 02:59:03;;;;;;;2.03;1.93;;;;;;;;;;481754;241;27572;-70
2021/07/06 03:01:04;;;;;;;1.80;1.70;;;;;;;;;;477478;248;27527;-68
2021/07/06 03:03:08;;;;;;;3.27;1.97;;;;;;;;;;477456;249;27545;-70
2021/07/06 03:05:09;;;;;;;1.93;1.83;;;;;;;;;;477385;249;27528;-69
2021/07/06 03:07:11;;;;;;;1.90;1.80;;;;;;;;;;477460;248;27536;-69
2021/07/06 03:09:13;;;;;;;1.80;1.70;;;;;;;;;;477485;248;27563;-70
2021/07/06 03:11:15;;;;;;;1.73;1.63;;;;;;;;;;477443;248;27619;-71
2021/07/06 03:13:17;;;;;;;1.83;1.73;;;;;;;;;;477464;248;27512;-71
2021/07/06 03:15:19;;;;;;;1.80;1.70;;;;;;;;;;477442;248;27535;-71
2021/07/06 03:17:21;;;;;;;1.90;1.80;;;;;;;;;;477480;248;27579;-71
2021/07/06 03:19:23;;;;;;;1.83;1.73;;;;;;;;;;477366;249;27526;-69
2021/07/06 03:21:26;;;;;;;1.80;1.70;;;;;;;;;;477478;248;27514;-69
2021/07/06 03:23:28;;;;;;;1.93;1.83;;;;;;;;;;477484;248;27669;-70
2021/07/06 03:25:30;;;;;;;1.80;1.70;;;;;;;;;;477481;248;27588;-71
2021/07/06 03:27:32;;;;;;;1.80;1.70;;;;;;;;;;477466;248;27528;-71
2021/07/06 03:29:34;;;;;;;1.83;1.60;;;;;;;;;;477451;249;27634;-69
2021/07/06 03:31:36;;;;;;;1.77;1.67;;;;;;;;;;477483;248;27523;-69
2021/07/06 03:33:38;;;;;;;1.80;1.70;;;;;;;;;;477485;248;27538;-69
2021/07/06 03:35:40;;;;;;;1.80;1.70;;;;;;;;;;477469;248;27538;-69
2021/07/06 03:37:43;;;;;;;2.63;1.80;;;;;;;;;;477460;248;28695;-69
2021/07/06 03:39:45;;;;;;;4.90;1.90;;;;;;;;;;488490;235;27470;-69
2021/07/06 03:41:47;;;;;;;2.03;1.93;;;;;;;;;;495360;239;27608;-69
2021/07/06 03:43:49;;;;;;;1.80;1.70;;;;;;;;;;495377;240;27523;-70
2021/07/06 03:45:51;;;;;;;1.63;1.53;;;;;;;;;;495311;240;27519;-71
2021/07/06 03:47:53;;;;;;;2.07;1.97;;;;;;;;;;495315;240;27503;-69
2021/07/06 03:49:55;;;;;;;1.80;1.70;;;;;;;;;;495340;240;27573;-71
2021/07/06 03:51:57;;;;;;;1.80;1.70;;;;;;;;;;495350;240;27509;-70
2021/07/06 03:53:59;;;;;;;1.80;1.70;;;;;;;;;;495328;240;27597;-69
2021/07/06 03:56:01;;;;;;;1.80;1.70;;;;;;;;;;495249;240;27533;-71
2021/07/06 04:00:06;;;;;;;1.60;1.50;;;;;;;;;;468335;251;27489;-70
2021/07/06 04:02:08;;;;;;;1.90;1.80;;;;;;;;;;468277;254;27450;-71
2021/07/06 04:04:10;;;;;;;1.90;1.80;;;;;;;;;;460182;258;27672;-71
2021/07/06 04:06:13;;;;;;;1.80;1.70;;;;;;;;;;460277;258;27651;-71
2021/07/06 04:08:15;;;;;;;2.50;1.70;;;;;;;;;;464400;238;27551;-69
2021/07/06 04:10:17;;;;;;;1.60;1.50;;;;;;;;;;493834;241;27533;-69
2021/07/06 04:12:19;;;;;;;2.33;1.87;;;;;;;;;;493974;240;27981;-71
2021/07/06 04:14:21;;;;;;;1.70;1.60;;;;;;;;;;499722;237;27479;-69
2021/07/06 04:16:23;;;;;;;1.60;1.50;;;;;;;;;;499746;237;27885;-71
2021/07/06 04:18:25;;;;;;;1.80;1.70;;;;;;;;;;494005;240;27482;-71
2021/07/06 04:20:28;;;;;;;1.97;1.87;;;;;;;;;;499773;237;27890;-71
2021/07/06 04:22:30;;;;;;;1.80;1.70;;;;;;;;;;499776;237;27399;-69
2021/07/06 04:24:32;;;;;;;1.50;1.50;;;;;;;;;;494019;240;27998;-69
2021/07/06 04:26:34;;;;;;;1.77;1.67;;;;;;;;;;499751;237;27400;-69
2021/07/06 04:28:36;;;;;;;1.70;1.60;;;;;;;;;;499761;237;27384;-69
2021/07/06 04:30:38;;;;;;;1.73;1.63;;;;;;;;;;494019;240;27505;-70
2021/07/06 04:32:40;;;;;;;1.83;1.73;;;;;;;;;;499706;237;27563;-69
2021/07/06 04:34:42;;;;;;;1.60;1.50;;;;;;;;;;499738;237;27483;-69
2021/07/06 04:36:44;;;;;;;1.63;1.53;;;;;;;;;;499729;237;27396;-71
2021/07/06 04:38:47;;;;;;;1.60;1.50;;;;;;;;;;499714;237;27517;-71
2021/07/06 04:40:49;;;;;;;1.70;1.60;;;;;;;;;;499718;238;27582;-71
2021/07/06 04:42:55;;;;;;;1.70;1.60;;;;;;;;;;499734;237;27478;-69
2021/07/06 04:44:53;;;;;;;1.37;1.37;;;;;;;;;;499432;237;27475;-71
2021/07/06 04:46:55;;;;;;;1.60;1.50;;;;;;;;;;493956;241;27588;-70
2021/07/06 04:48:57;;;;;;;1.40;1.40;;;;;;;;;;499735;237;28148;-71
2021/07/06 04:51:05;;;;;;;1.53;1.43;;;;;;;;;;499660;237;27476;-71
2021/07/06 04:53:01;;;;;;;1.60;1.50;;;;;;;;;;499298;236;27564;-71
2021/07/06 04:55:07;;;;;;;1.83;1.73;;;;;;;;;;499723;237;27508;-69
2021/07/06 04:57:15;;;;;;;1.70;1.60;;;;;;;;;;498655;237;27362;-71
2021/07/06 04:59:17;;;;;;;1.50;1.40;;;;;;;;;;481144;241;27579;-71
2021/07/06 05:01:19;;;;;;;1.60;1.50;;;;;;;;;;489447;243;27394;-71
2021/07/06 05:03:21;;;;;;;1.80;1.70;;;;;;;;;;489953;242;27481;-71
2021/07/06 05:05:23;;;;;;;1.40;1.40;;;;;;;;;;475411;250;27468;-71
2021/07/06 05:07:25;;;;;;;1.80;1.70;;;;;;;;;;477126;249;27455;-71
2021/07/06 05:09:27;;;;;;;1.37;1.37;;;;;;;;;;484431;245;27531;-71
2021/07/06 05:11:29;;;;;;;1.50;1.50;;;;;;;;;;484390;245;27567;-71
2021/07/06 05:13:32;;;;;;;1.73;1.63;;;;;;;;;;484393;245;27556;-71
2021/07/06 05:15:34;;;;;;;1.67;1.57;;;;;;;;;;484346;245;27539;-71
2021/07/06 05:17:36;;;;;;;1.83;1.73;;;;;;;;;;484400;245;28011;-71
2021/07/06 05:19:38;;;;;;;1.80;1.70;;;;;;;;;;500055;235;27523;-71
2021/07/06 05:21:40;;;;;;;1.63;1.53;;;;;;;;;;494842;240;27979;-71
2021/07/06 05:23:42;;;;;;;2.97;1.80;;;;;;;;;;505529;235;27480;-70
2021/07/06 05:25:44;;;;;;;1.53;1.47;;;;;;;;;;497081;239;27970;-71
2021/07/06 05:27:46;;;;;;;1.70;1.60;;;;;;;;;;497098;239;27629;-71
2021/07/06 05:29:49;;;;;;;2.10;1.60;;;;;;;;;;497085;239;27480;-70
2021/07/06 05:31:51;;;;;;;1.63;1.53;;;;;;;;;;497071;239;27488;-71
2021/07/06 05:33:53;;;;;;;2.53;1.80;;;;;;;;;;497006;239;27383;-69
2021/07/06 05:35:55;;;;;;;3.27;1.80;;;;;;;;;;497015;239;27436;-71
2021/07/06 05:37:57;;;;;;;1.87;1.63;;;;;;;;;;496944;239;27497;-71
2021/07/06 05:39:59;;;;;;;2.10;2.00;;;;;;;;;;497018;239;27565;-71
2021/07/06 05:42:04;;;;;;;1.70;1.60;;;;;;;;;;497117;239;27944;-70
2021/07/06 05:44:03;;;;;;;1.90;1.80;;;;;;;;;;496949;239;27381;-71
2021/07/06 05:46:06;;;;;;;2.00;1.90;;;;;;;;;;497088;239;28003;-69
2021/07/06 05:50:14;;;;;;;1.60;1.50;;;;;;;;;;467873;251;28178;-72
2021/07/06 05:52:16;;;;;;;1.80;1.70;;;;;;;;;;469545;252;27459;-69
2021/07/06 05:54:18;;;;;;;1.40;1.40;;;;;;;;;;469654;253;28203;-71
2021/07/06 05:56:20;;;;;;;1.53;1.43;;;;;;;;;;469674;253;27588;-70
2021/07/06 05:58:22;;;;;;;1.67;1.57;;;;;;;;;;469558;253;28245;-70
2021/07/06 06:00:24;;;;;;;1.93;1.83;;;;;;;;;;469678;253;27581;-70
2021/07/06 06:02:27;;;;;;;1.67;1.57;;;;;;;;;;469673;253;28050;-70
2021/07/06 06:04:29;;;;;;;1.70;1.60;;;;;;;;;;469691;253;27679;-70
2021/07/06 06:06:31;;;;;;;1.50;1.40;;;;;;;;;;469695;253;28116;-70
2021/07/06 06:08:33;;;;;;;1.60;1.50;;;;;;;;;;469675;253;27608;-70
2021/07/06 06:10:35;;;;;;;1.77;1.67;;;;;;;;;;469676;253;27677;-71
2021/07/06 06:12:37;;;;;;;1.70;1.60;;;;;;;;;;469665;253;27589;-71
2021/07/06 06:14:39;;;;;;;2.17;2.03;;;;;;;;;;469673;253;27589;-70
2021/07/06 06:16:41;;;;;;;1.60;1.50;;;;;;;;;;469660;253;27677;-71
2021/07/06 06:18:44;;;;;;;1.73;1.63;;;;;;;;;;469669;253;27655;-70
2021/07/06 06:20:46;;;;;;;1.80;1.70;;;;;;;;;;469681;253;27625;-71
2021/07/06 06:22:48;;;;;;;1.80;1.70;;;;;;;;;;469675;253;27577;-71
2021/07/06 06:24:50;;;;;;;1.60;1.50;;;;;;;;;;469666;253;27689;-71
2021/07/06 06:26:52;;;;;;;1.90;1.80;;;;;;;;;;469674;253;27583;-71
2021/07/06 06:28:54;;;;;;;1.83;1.73;;;;;;;;;;469681;253;27549;-71
2021/07/06 06:30:56;;;;;;;2.67;2.03;;;;;;;;;;469693;253;27562;-70
2021/07/06 06:32:59;;;;;;;1.80;1.70;;;;;;;;;;469701;253;27642;-71
2021/07/06 06:35:00;;;;;;;2.00;1.90;;;;;;;;;;469677;253;27533;-71
2021/07/06 06:37:03;;;;;;;1.90;1.80;;;;;;;;;;469708;253;27614;-71
2021/07/06 06:39:05;;;;;;;1.67;1.50;;;;;;;;;;469697;253;27555;-70
2021/07/06 06:41:07;;;;;;;1.70;1.60;;;;;;;;;;469696;253;27675;-71
2021/07/06 06:43:09;;;;;;;1.80;1.70;;;;;;;;;;469646;253;27596;-70
2021/07/06 06:45:11;;;;;;;1.77;1.67;;;;;;;;;;469697;253;27554;-71
2021/07/06 06:47:15;;;;;;;3.00;1.93;;;;;;;;;;469588;253;27540;-71
2021/07/06 06:49:15;;;;;;;1.70;1.60;;;;;;;;;;469405;252;27558;-71
2021/07/06 06:51:17;;;;;;;2.20;2.00;;;;;;;;;;469699;253;27550;-71
2021/07/06 06:53:19;;;;;;;1.60;1.50;;;;;;;;;;469725;253;27578;-70
2021/07/06 06:55:22;;;;;;;3.63;2.00;;;;;;;;;;469641;253;28124;-71
2021/07/06 06:57:24;;;;;;;1.73;1.50;;;;;;;;;;469708;253;27580;-71
2021/07/06 06:59:26;;;;;;;2.10;1.90;;;;;;;;;;469696;253;27597;-71
2021/07/06 07:01:28;;;;;;;1.60;1.50;;;;;;;;;;469709;253;27664;-71
2021/07/06 07:03:30;;;;;;;1.93;1.83;;;;;;;;;;469693;253;27581;-71
2021/07/06 07:05:32;;;;;;;1.60;1.50;;;;;;;;;;469708;253;27706;-71
2021/07/06 07:07:35;;;;;;;1.83;1.73;;;;;;;;;;469683;253;27662;-71
2021/07/06 07:09:36;;;;;;;2.10;1.70;;;;;;;;;;490250;233;27525;-71
2021/07/06 07:11:38;;;;;;;2.33;1.60;;;;;;;;;;486965;243;27520;-71
2021/07/06 07:13:41;;;;;;;2.20;2.00;;;;;;;;;;486964;244;27513;-70
2021/07/06 07:15:43;;;;;;;3.10;2.00;;;;;;;;;;486952;244;27499;-71
2021/07/06 07:17:45;;;;;;;1.80;1.70;;;;;;;;;;486956;244;27510;-70
2021/07/06 07:19:47;;;;;;;1.90;1.80;;;;;;;;;;484332;240;27524;-70
2021/07/06 07:21:49;;;;;;;2.37;2.07;;;;;;;;;;483633;245;27433;-71
2021/07/06 07:23:54;;;;;;;3.73;2.10;;;;;;;;;;484487;245;27959;-71
2021/07/06 07:25:56;;;;;;;1.90;1.80;;;;;;;;;;483654;244;27450;-69
2021/07/06 07:30:09;;;;;;;3.50;2.10;;;;;;;;;;482255;246;27494;-72
2021/07/06 07:32:11;;;;;;;3.50;2.50;;;;;;;;;;480450;247;28013;-72
2021/07/06 07:34:13;;;;;;;2.37;2.17;;;;;;;;;;480462;247;27566;-71
2021/07/06 07:36:15;;;;;;;2.70;2.10;;;;;;;;;;480479;247;28073;-71
2021/07/06 07:38:17;;;;;;;2.50;2.30;;;;;;;;;;481377;238;27519;-70
2021/07/06 07:40:20;;;;;;;1.80;1.70;;;;;;;;;;499561;238;27461;-71
2021/07/06 07:42:22;;;;;;;3.43;2.23;;;;;;;;;;499530;238;27520;-72
2021/07/06 07:44:24;;;;;;;2.50;2.33;;;;;;;;;;499549;238;27456;-70
2021/07/06 07:46:26;;;;;;;2.23;2.03;;;;;;;;;;499534;238;27532;-70
2021/07/06 07:48:28;;;;;;;2.40;2.20;;;;;;;;;;491478;237;27522;-69
2021/07/06 07:50:30;;;;;;;4.37;2.00;;;;;;;;;;463121;254;27515;-70
2021/07/06 07:52:33;;;;;;;1.80;1.70;;;;;;;;;;463120;256;27657;-70
2021/07/06 07:54:35;;;;;;;3.03;2.83;;;;;;;;;;463106;257;27505;-71
2021/07/06 07:56:37;;;;;;;1.87;1.77;;;;;;;;;;463112;254;27565;-71
2021/07/06 07:58:39;;;;;;;1.80;1.70;;;;;;;;;;472205;238;27477;-69
2021/07/06 08:00:41;;;;;;;1.73;1.60;;;;;;;;;;494748;239;27369;-70
2021/07/06 08:02:43;;;;;;;2.00;1.90;;;;;;;;;;494741;239;27382;-71
2021/07/06 08:04:48;;;;;;;1.90;1.80;;;;;;;;;;494728;239;27984;-71
2021/07/06 08:06:53;;;;;;;3.93;1.70;;;;;;;;;;494759;239;27908;-71
2021/07/06 08:08:55;;;;;;;2.30;1.80;;;;;;;;;;497938;230;27425;-71
2021/07/06 08:10:59;;;;;;;1.70;1.60;;;;;;;;;;507301;234;27872;-71
2021/07/06 08:12:59;;;;;;;1.77;1.67;;;;;;;;;;499724;238;27448;-71
2021/07/06 08:15:02;;;;;;;1.70;1.60;;;;;;;;;;507303;234;27429;-71
2021/07/06 08:17:03;;;;;;;1.70;1.60;;;;;;;;;;507285;233;27449;-70
2021/07/06 08:19:05;;;;;;;1.83;1.73;;;;;;;;;;494146;234;27506;-71
2021/07/06 08:21:08;;;;;;;1.57;1.57;;;;;;;;;;485040;245;27473;-71
2021/07/06 08:23:10;;;;;;;1.50;1.40;;;;;;;;;;485046;245;27836;-70
2021/07/06 08:25:12;;;;;;;1.50;1.50;;;;;;;;;;485052;245;28000;-71
2021/07/06 08:27:15;;;;;;;1.40;1.40;;;;;;;;;;485054;245;27421;-70
2021/07/06 08:29:17;;;;;;;1.67;1.57;;;;;;;;;;479723;244;27492;-70
2021/07/06 08:31:18;;;;;;;1.30;1.20;;;;;;;;;;476664;249;27527;-71
2021/07/06 08:33:20;;;;;;;1.40;1.30;;;;;;;;;;476718;249;27441;-69
2021/07/06 08:35:22;;;;;;;1.20;1.20;;;;;;;;;;476721;249;27564;-69
2021/07/06 08:37:25;;;;;;;1.10;1.10;;;;;;;;;;476725;249;27460;-70
2021/07/06 08:39:28;;;;;;;1.20;1.10;;;;;;;;;;472683;246;27665;-69
2021/07/06 08:41:29;;;;;;;1.80;1.20;;;;;;;;;;471189;252;27582;-71
2021/07/06 08:43:31;;;;;;;1.17;1.17;;;;;;;;;;471201;252;28041;-70
2021/07/06 08:45:34;;;;;;;1.43;1.33;;;;;;;;;;471238;252;27654;-71
2021/07/06 08:47:35;;;;;;;2.53;1.37;;;;;;;;;;471213;252;28026;-71
2021/07/06 08:49:37;;;;;;;1.13;1.10;;;;;;;;;;473699;235;27554;-70
2021/07/06 08:51:39;;;;;;;1.30;1.20;;;;;;;;;;463231;257;27918;-72
2021/07/06 08:53:42;;;;;;;1.30;1.27;;;;;;;;;;472306;250;27960;-70
2021/07/06 08:55:44;;;;;;;1.20;1.20;;;;;;;;;;463233;257;27458;-70
2021/07/06 08:57:46;;;;;;;1.00;1.00;;;;;;;;;;472285;250;27929;-71
2021/07/06 08:59:48;;;;;;;1.20;1.20;;;;;;;;;;476319;241;27774;-71
2021/07/06 09:01:51;;;;;;;1.10;1.10;;;;;;;;;;484126;245;27980;-69
2021/07/06 09:03:56;;;;;;;1.17;1.17;;;;;;;;;;484114;245;27501;-71
2021/07/06 09:05:54;;;;;;;1.10;1.10;;;;;;;;;;483541;245;27961;-71
2021/07/06 09:10:18;;;;;;;1.20;1.17;;;;;;;;;;475228;249;27430;-69
2021/07/06 09:12:20;;;;;;;1.27;1.20;;;;;;;;;;475292;250;27866;-71
2021/07/06 09:14:27;;;;;;;1.00;1.00;;;;;;;;;;475340;249;27417;-71
2021/07/06 09:16:31;;;;;;;1.00;1.00;;;;;;;;;;475018;250;27466;-70
2021/07/06 09:18:29;;;;;;;1.43;1.10;;;;;;;;;;475262;240;27555;-70
2021/07/06 09:20:32;;;;;;;1.40;1.30;;;;;;;;;;478298;248;27542;-71
2021/07/06 09:22:34;;;;;;;1.23;1.20;;;;;;;;;;478241;248;27558;-70
2021/07/06 09:24:36;;;;;;;1.23;1.23;;;;;;;;;;478249;248;27572;-70
2021/07/06 09:26:38;;;;;;;1.50;1.40;;;;;;;;;;478306;248;27477;-71
2021/07/06 09:28:40;;;;;;;1.40;1.30;;;;;;;;;;480967;240;27523;-71
2021/07/06 09:30:43;;;;;;;1.03;1.03;;;;;;;;;;486733;243;27624;-69
2021/07/06 09:32:44;;;;;;;2.00;1.40;;;;;;;;;;486178;244;27444;-71
2021/07/06 09:34:46;;;;;;;1.53;1.43;;;;;;;;;;486755;243;27460;-72
2021/07/06 09:36:48;;;;;;;1.33;1.23;;;;;;;;;;486744;243;27529;-71
2021/07/06 09:38:51;;;;;;;1.60;1.50;;;;;;;;;;486237;240;28045;-69
2021/07/06 09:40:53;;;;;;;1.50;1.40;;;;;;;;;;485907;245;27448;-69
2021/07/06 09:42:55;;;;;;;1.50;1.50;;;;;;;;;;485930;245;27390;-69
2021/07/06 09:44:57;;;;;;;1.30;1.30;;;;;;;;;;485924;245;27396;-71
2021/07/06 09:46:59;;;;;;;1.30;1.20;;;;;;;;;;485892;245;27860;-71
2021/07/06 09:49:02;;;;;;;1.40;1.40;;;;;;;;;;483212;236;27439;-70
2021/07/06 09:51:04;;;;;;;1.30;1.30;;;;;;;;;;478725;248;27890;-70
2021/07/06 09:53:06;;;;;;;1.40;1.30;;;;;;;;;;478701;248;27483;-71
2021/07/06 09:55:09;;;;;;;1.20;1.20;;;;;;;;;;478746;248;27500;-70
2021/07/06 09:57:12;;;;;;;1.10;1.10;;;;;;;;;;478706;248;27451;-71
2021/07/06 09:59:13;;;;;;;1.43;1.10;;;;;;;;;;476828;233;27385;-69
2021/07/06 10:01:15;;;;;;;1.20;1.20;;;;;;;;;;471957;252;27326;-69
2021/07/06 10:03:18;;;;;;;1.20;1.20;;;;;;;;;;471446;252;27459;-69
2021/07/06 10:05:20;;;;;;;1.13;1.13;;;;;;;;;;471951;252;27341;-69
2021/07/06 10:07:22;;;;;;;1.10;1.10;;;;;;;;;;471935;252;27438;-71
2021/07/06 10:09:24;;;;;;;1.37;1.27;;;;;;;;;;481623;235;27627;-71
2021/07/06 10:11:26;;;;;;;1.57;1.47;;;;;;;;;;485629;244;28060;-71
2021/07/06 10:13:28;;;;;;;1.30;1.07;;;;;;;;;;485618;244;27480;-70
2021/07/06 10:15:31;;;;;;;1.10;1.10;;;;;;;;;;485639;244;27997;-71
2021/07/06 10:17:32;;;;;;;1.20;1.20;;;;;;;;;;485570;244;27584;-71
2021/07/06 10:19:34;;;;;;;1.13;1.13;;;;;;;;;;479280;236;27971;-71
2021/07/06 10:21:37;;;;;;;1.47;1.40;;;;;;;;;;475490;250;27413;-69
2021/07/06 10:23:41;;;;;;;1.13;1.13;;;;;;;;;;475455;250;27859;-71
2021/07/06 10:25:42;;;;;;;2.57;1.40;;;;;;;;;;475316;250;27406;-71
2021/07/06 10:27:43;;;;;;;1.60;1.50;;;;;;;;;;475395;250;27869;-69
2021/07/06 10:29:45;;;;;;;1.40;1.30;;;;;;;;;;480305;239;27420;-71
2021/07/06 10:31:47;;;;;;;1.30;1.20;;;;;;;;;;481352;246;27985;-71
2021/07/06 10:33:49;;;;;;;1.50;1.40;;;;;;;;;;481331;247;27925;-71
2021/07/06 10:35:51;;;;;;;1.13;1.13;;;;;;;;;;481289;246;27435;-71
2021/07/06 10:37:54;;;;;;;1.50;1.40;;;;;;;;;;481300;247;27981;-71
2021/07/06 10:39:56;;;;;;;1.20;1.10;;;;;;;;;;483214;245;27596;-71
2021/07/06 10:41:58;;;;;;;3.40;1.23;;;;;;;;;;484143;245;28048;-71
2021/07/06 10:44:02;;;;;;;1.30;1.20;;;;;;;;;;484106;245;27596;-71
2021/07/06 10:46:02;;;;;;;1.10;1.10;;;;;;;;;;484070;245;28078;-72
2021/07/06 10:50:10;;;;;;;1.43;1.20;;;;;;;;;;476038;245;27671;-71
2021/07/06 10:52:12;;;;;;;1.20;1.20;;;;;;;;;;486546;244;27421;-71
2021/07/06 10:54:17;;;;;;;2.00;1.40;;;;;;;;;;468925;253;28123;-71
2021/07/06 10:56:19;;;;;;;1.50;1.40;;;;;;;;;;468915;253;28024;-71
2021/07/06 10:58:21;;;;;;;1.87;1.30;;;;;;;;;;470191;235;27552;-70
2021/07/06 11:00:23;;;;;;;1.47;1.40;;;;;;;;;;471098;252;27883;-71
2021/07/06 11:02:25;;;;;;;1.90;1.10;;;;;;;;;;471077;252;27878;-71
2021/07/06 11:04:28;;;;;;;1.40;1.30;;;;;;;;;;471076;252;27854;-72
2021/07/06 11:06:30;;;;;;;1.70;1.10;;;;;;;;;;471083;252;27431;-72
2021/07/06 11:08:32;;;;;;;1.30;1.20;;;;;;;;;;471078;247;27874;-71
2021/07/06 11:10:35;;;;;;;1.30;1.30;;;;;;;;;;471115;252;27423;-71
2021/07/06 11:12:36;;;;;;;1.30;1.30;;;;;;;;;;471069;252;28764;-71
2021/07/06 11:14:38;;;;;;;1.37;1.33;;;;;;;;;;471072;252;27529;-71
2021/07/06 11:16:40;;;;;;;1.30;1.30;;;;;;;;;;471105;252;28067;-72
2021/07/06 11:18:44;;;;;;;1.20;1.20;;;;;;;;;;475627;239;27881;-71
2021/07/06 11:20:45;;;;;;;1.30;1.30;;;;;;;;;;484749;244;27446;-70
2021/07/06 11:22:47;;;;;;;1.20;1.10;;;;;;;;;;486424;244;27566;-71
2021/07/06 11:24:49;;;;;;;1.33;1.30;;;;;;;;;;486450;244;27528;-71
2021/07/06 11:26:51;;;;;;;1.40;1.30;;;;;;;;;;486442;244;27531;-72
2021/07/06 11:28:53;;;;;;;1.30;1.30;;;;;;;;;;482582;241;27571;-70
2021/07/06 11:30:55;;;;;;;1.17;1.17;;;;;;;;;;475145;250;27458;-71
2021/07/06 11:32:57;;;;;;;1.30;1.30;;;;;;;;;;469421;253;28002;-71
2021/07/06 11:34:59;;;;;;;1.30;1.27;;;;;;;;;;469451;253;27507;-71
2021/07/06 11:37:01;;;;;;;1.20;1.20;;;;;;;;;;469443;253;27471;-71
2021/07/06 11:39:04;;;;;;;1.10;1.10;;;;;;;;;;476367;231;27567;-71
2021/07/06 11:41:06;;;;;;;2.10;1.40;;;;;;;;;;480210;248;27420;-71
2021/07/06 11:43:08;;;;;;;1.37;1.37;;;;;;;;;;480195;248;27467;-70
2021/07/06 11:45:10;;;;;;;1.27;1.23;;;;;;;;;;480119;248;27515;-71
2021/07/06 11:47:12;;;;;;;1.60;1.50;;;;;;;;;;480121;248;27513;-71
2021/07/06 11:49:14;;;;;;;1.80;1.50;;;;;;;;;;481143;237;27469;-71
2021/07/06 11:51:16;;;;;;;1.40;1.30;;;;;;;;;;479066;248;27428;-70
2021/07/06 11:53:18;;;;;;;1.50;1.40;;;;;;;;;;479045;244;27420;-72
2021/07/06 11:55:20;;;;;;;2.20;1.40;;;;;;;;;;479049;248;27900;-71
2021/07/06 11:57:23;;;;;;;2.37;1.33;;;;;;;;;;479036;244;27869;-70
2021/07/06 11:59:25;;;;;;;1.30;1.20;;;;;;;;;;488100;231;27465;-69
2021/07/06 12:01:27;;;;;;;1.57;1.47;;;;;;;;;;491024;242;27917;-71
2021/07/06 12:03:29;;;;;;;1.50;1.40;;;;;;;;;;490998;242;27384;-71
2021/07/06 12:05:32;;;;;;;1.53;1.53;;;;;;;;;;490996;241;27423;-70
2021/07/06 12:07:35;;;;;;;1.60;1.37;;;;;;;;;;491003;242;27422;-69
2021/07/06 12:09:36;;;;;;;1.70;1.60;;;;;;;;;;489269;234;27419;-69
2021/07/06 12:11:38;;;;;;;1.40;1.40;;;;;;;;;;489688;242;27415;-70
2021/07/06 12:13:43;;;;;;;2.50;1.40;;;;;;;;;;489684;242;27888;-70
2021/07/06 12:15:46;;;;;;;1.53;1.47;;;;;;;;;;489703;242;27380;-71
2021/07/06 12:17:47;;;;;;;1.77;1.67;;;;;;;;;;489628;242;27432;-71
2021/07/06 12:19:50;;;;;;;1.40;1.30;;;;;;;;;;489568;242;27462;-71
2021/07/06 12:21:52;;;;;;;1.50;1.40;;;;;;;;;;489628;242;27387;-71
2021/07/06 12:23:54;;;;;;;1.23;1.20;;;;;;;;;;489672;241;27384;-70
2021/07/06 12:25:56;;;;;;;2.43;2.23;;;;;;;;;;489657;241;27462;-71
2021/07/06 12:30:20;;;;;;;1.60;1.50;;;;;;;;;;490849;242;27390;-71